sensor_id;sensor_type;location;lat;lon;timestamp;P1;durP1;ratioP1;P2;durP2;ratioP2
30934;SDS011;51033;42.648;23.292;2022-08-01T00:00:07;1.65;;;1.20;;
30934;SDS011;51033;42.648;23.292;2022-08-01T00:02:34;1.40;;;1.30;;
30934;SDS011;51033;42.648;23.292;2022-08-01T00:04:59;1.77;;;1.23;;
30934;SDS011;51033;42.648;23.292;2022-08-01T00:07:27;1.52;;;1.42;;
30934;SDS011;51033;42.648;23.292;2022-08-01T00:09:53;1.70;;;1.02;;
30934;SDS011;51033;42.648;23.292;2022-08-01T00:12:18;1.00;;;0.90;;
30934;SDS011;51033;42.648;23.292;2022-08-01T00:14:43;1.63;;;1.20;;
30934;SDS011;51033;42.648;23.292;2022-08-01T00:17:09;4.22;;;1.30;;
30934;SDS011;51033;42.648;23.292;2022-08-01T00:19:34;1.40;;;1.23;;
30934;SDS011;51033;42.648;23.292;2022-08-01T00:22:00;1.45;;;1.35;;
30934;SDS011;51033;42.648;23.292;2022-08-01T00:24:25;2.38;;;1.25;;
30934;SDS011;51033;42.648;23.292;2022-08-01T00:26:51;2.88;;;1.83;;
30934;SDS011;51033;42.648;23.292;2022-08-01T00:29:16;1.02;;;0.98;;
30934;SDS011;51033;42.648;23.292;2022-08-01T00:31:42;1.20;;;1.10;;
30934;SDS011;51033;42.648;23.292;2022-08-01T00:34:08;3.25;;;1.33;;
30934;SDS011;51033;42.648;23.292;2022-08-01T00:36:33;3.20;;;1.00;;
30934;SDS011;51033;42.648;23.292;2022-08-01T00:38:59;3.45;;;1.10;;
30934;SDS011;51033;42.648;23.292;2022-08-01T00:41:24;1.25;;;1.10;;
30934;SDS011;51033;42.648;23.292;2022-08-01T00:43:50;1.98;;;1.00;;
30934;SDS011;51033;42.648;23.292;2022-08-01T00:46:15;1.80;;;1.00;;
30934;SDS011;51033;42.648;23.292;2022-08-01T00:48:40;1.20;;;1.10;;
30934;SDS011;51033;42.648;23.292;2022-08-01T00:51:06;3.92;;;1.42;;
30934;SDS011;51033;42.648;23.292;2022-08-01T00:53:32;4.63;;;1.20;;
30934;SDS011;51033;42.648;23.292;2022-08-01T00:56:00;1.48;;;1.17;;
30934;SDS011;51033;42.648;23.292;2022-08-01T00:58:26;1.50;;;1.40;;
30934;SDS011;51033;42.648;23.292;2022-08-01T01:00:55;1.10;;;1.00;;
30934;SDS011;51033;42.648;23.292;2022-08-01T01:03:21;2.00;;;1.63;;
30934;SDS011;51033;42.648;23.292;2022-08-01T01:05:48;1.63;;;1.10;;
30934;SDS011;51033;42.648;23.292;2022-08-01T01:08:39;2.30;;;1.13;;
30934;SDS011;51033;42.648;23.292;2022-08-01T01:11:20;2.20;;;1.10;;
30934;SDS011;51033;42.648;23.292;2022-08-01T01:13:52;1.00;;;0.90;;
30934;SDS011;51033;42.648;23.292;2022-08-01T01:16:22;1.10;;;0.98;;
30934;SDS011;51033;42.648;23.292;2022-08-01T01:18:51;2.25;;;1.00;;
30934;SDS011;51033;42.648;23.292;2022-08-01T01:26:40;2.03;;;1.27;;
30934;SDS011;51033;42.648;23.292;2022-08-01T01:29:28;2.55;;;1.20;;
30934;SDS011;51033;42.648;23.292;2022-08-01T01:34:29;1.33;;;1.00;;
30934;SDS011;51033;42.648;23.292;2022-08-01T01:36:59;1.33;;;1.00;;
30934;SDS011;51033;42.648;23.292;2022-08-01T01:39:27;1.17;;;0.93;;
30934;SDS011;51033;42.648;23.292;2022-08-01T01:41:54;1.20;;;1.10;;
30934;SDS011;51033;42.648;23.292;2022-08-01T01:44:22;1.10;;;1.00;;
30934;SDS011;51033;42.648;23.292;2022-08-01T01:46:50;0.93;;;0.80;;
30934;SDS011;51033;42.648;23.292;2022-08-01T01:49:19;1.88;;;1.67;;
30934;SDS011;51033;42.648;23.292;2022-08-01T01:51:48;1.25;;;1.15;;
30934;SDS011;51033;42.648;23.292;2022-08-01T01:54:16;1.35;;;1.13;;
30934;SDS011;51033;42.648;23.292;2022-08-01T01:56:43;1.33;;;1.05;;
30934;SDS011;51033;42.648;23.292;2022-08-01T01:59:17;1.10;;;1.00;;
30934;SDS011;51033;42.648;23.292;2022-08-01T02:01:46;1.10;;;1.00;;
30934;SDS011;51033;42.648;23.292;2022-08-01T02:04:14;2.53;;;1.65;;
30934;SDS011;51033;42.648;23.292;2022-08-01T02:06:41;1.52;;;1.00;;
30934;SDS011;51033;42.648;23.292;2022-08-01T02:09:08;1.13;;;1.02;;
30934;SDS011;51033;42.648;23.292;2022-08-01T02:11:35;1.48;;;1.30;;
30934;SDS011;51033;42.648;23.292;2022-08-01T02:14:03;1.20;;;1.00;;
30934;SDS011;51033;42.648;23.292;2022-08-01T02:16:29;1.23;;;1.10;;
30934;SDS011;51033;42.648;23.292;2022-08-01T02:18:59;1.00;;;0.95;;
30934;SDS011;51033;42.648;23.292;2022-08-01T02:21:27;1.25;;;0.95;;
30934;SDS011;51033;42.648;23.292;2022-08-01T02:24:10;2.50;;;1.00;;
30934;SDS011;51033;42.648;23.292;2022-08-01T02:26:42;1.80;;;1.10;;
30934;SDS011;51033;42.648;23.292;2022-08-01T02:29:13;1.02;;;0.93;;
30934;SDS011;51033;42.648;23.292;2022-08-01T02:31:44;3.55;;;1.10;;
30934;SDS011;51033;42.648;23.292;2022-08-01T02:34:13;1.55;;;1.08;;
30934;SDS011;51033;42.648;23.292;2022-08-01T02:36:41;1.20;;;1.00;;
30934;SDS011;51033;42.648;23.292;2022-08-01T02:39:11;0.77;;;0.77;;
30934;SDS011;51033;42.648;23.292;2022-08-01T02:41:42;1.48;;;1.02;;
30934;SDS011;51033;42.648;23.292;2022-08-01T02:44:15;1.60;;;1.00;;
30934;SDS011;51033;42.648;23.292;2022-08-01T02:47:03;2.65;;;1.30;;
30934;SDS011;51033;42.648;23.292;2022-08-01T02:50:02;1.73;;;1.10;;
30934;SDS011;51033;42.648;23.292;2022-08-01T02:52:23;2.00;;;1.20;;
30934;SDS011;51033;42.648;23.292;2022-08-01T02:54:51;1.88;;;1.10;;
30934;SDS011;51033;42.648;23.292;2022-08-01T02:57:20;5.43;;;1.50;;
30934;SDS011;51033;42.648;23.292;2022-08-01T02:59:46;2.83;;;1.40;;
30934;SDS011;51033;42.648;23.292;2022-08-01T03:02:14;2.72;;;2.00;;
30934;SDS011;51033;42.648;23.292;2022-08-01T03:04:40;5.18;;;1.25;;
30934;SDS011;51033;42.648;23.292;2022-08-01T03:07:07;2.65;;;1.45;;
30934;SDS011;51033;42.648;23.292;2022-08-01T03:09:38;2.15;;;1.33;;
30934;SDS011;51033;42.648;23.292;2022-08-01T03:12:09;1.75;;;1.33;;
30934;SDS011;51033;42.648;23.292;2022-08-01T03:14:39;1.23;;;1.15;;
30934;SDS011;51033;42.648;23.292;2022-08-01T03:17:07;1.77;;;1.27;;
30934;SDS011;51033;42.648;23.292;2022-08-01T03:19:34;2.17;;;1.27;;
30934;SDS011;51033;42.648;23.292;2022-08-01T03:22:02;1.35;;;1.25;;
30934;SDS011;51033;42.648;23.292;2022-08-01T03:24:34;1.40;;;1.30;;
30934;SDS011;51033;42.648;23.292;2022-08-01T03:27:02;1.50;;;1.40;;
30934;SDS011;51033;42.648;23.292;2022-08-01T03:29:29;1.70;;;1.30;;
30934;SDS011;51033;42.648;23.292;2022-08-01T03:31:57;3.22;;;1.20;;
30934;SDS011;51033;42.648;23.292;2022-08-01T03:34:24;2.33;;;1.40;;
30934;SDS011;51033;42.648;23.292;2022-08-01T03:37:02;1.50;;;1.30;;
30934;SDS011;51033;42.648;23.292;2022-08-01T03:39:34;2.00;;;1.50;;
30934;SDS011;51033;42.648;23.292;2022-08-01T03:42:16;1.42;;;1.20;;
30934;SDS011;51033;42.648;23.292;2022-08-01T03:44:56;2.33;;;1.73;;
30934;SDS011;51033;42.648;23.292;2022-08-01T03:47:31;2.00;;;1.20;;
30934;SDS011;51033;42.648;23.292;2022-08-01T03:49:59;1.90;;;1.70;;
30934;SDS011;51033;42.648;23.292;2022-08-01T03:52:29;2.88;;;1.83;;
30934;SDS011;51033;42.648;23.292;2022-08-01T03:54:58;2.03;;;1.77;;
30934;SDS011;51033;42.648;23.292;2022-08-01T03:57:28;2.63;;;2.13;;
30934;SDS011;51033;42.648;23.292;2022-08-01T03:59:55;1.80;;;1.70;;
30934;SDS011;51033;42.648;23.292;2022-08-01T04:02:23;1.98;;;1.77;;
30934;SDS011;51033;42.648;23.292;2022-08-01T04:04:51;2.13;;;1.80;;
30934;SDS011;51033;42.648;23.292;2022-08-01T04:07:30;2.33;;;1.67;;
30934;SDS011;51033;42.648;23.292;2022-08-01T04:09:56;3.33;;;1.52;;
30934;SDS011;51033;42.648;23.292;2022-08-01T04:12:23;2.33;;;1.73;;
30934;SDS011;51033;42.648;23.292;2022-08-01T04:14:48;2.15;;;1.48;;
30934;SDS011;51033;42.648;23.292;2022-08-01T04:17:14;2.92;;;1.30;;
30934;SDS011;51033;42.648;23.292;2022-08-01T04:19:43;2.40;;;1.50;;
30934;SDS011;51033;42.648;23.292;2022-08-01T04:22:11;2.05;;;1.48;;
30934;SDS011;51033;42.648;23.292;2022-08-01T04:24:38;1.60;;;1.50;;
30934;SDS011;51033;42.648;23.292;2022-08-01T04:27:06;2.17;;;1.33;;
30934;SDS011;51033;42.648;23.292;2022-08-01T04:29:35;1.90;;;1.50;;
30934;SDS011;51033;42.648;23.292;2022-08-01T04:32:03;1.35;;;1.25;;
30934;SDS011;51033;42.648;23.292;2022-08-01T04:34:30;3.58;;;1.70;;
30934;SDS011;51033;42.648;23.292;2022-08-01T04:36:58;2.38;;;1.55;;
30934;SDS011;51033;42.648;23.292;2022-08-01T04:39:26;2.78;;;1.38;;
30934;SDS011;51033;42.648;23.292;2022-08-01T04:41:56;3.90;;;1.70;;
30934;SDS011;51033;42.648;23.292;2022-08-01T04:44:28;2.20;;;1.75;;
30934;SDS011;51033;42.648;23.292;2022-08-01T04:46:57;2.08;;;1.75;;
30934;SDS011;51033;42.648;23.292;2022-08-01T04:49:28;1.85;;;1.55;;
30934;SDS011;51033;42.648;23.292;2022-08-01T04:51:56;3.08;;;1.60;;
30934;SDS011;51033;42.648;23.292;2022-08-01T04:54:29;4.03;;;1.95;;
30934;SDS011;51033;42.648;23.292;2022-08-01T04:57:00;2.20;;;1.38;;
30934;SDS011;51033;42.648;23.292;2022-08-01T04:59:26;3.35;;;1.75;;
30934;SDS011;51033;42.648;23.292;2022-08-01T05:02:14;5.25;;;1.60;;
30934;SDS011;51033;42.648;23.292;2022-08-01T05:04:40;2.08;;;1.33;;
30934;SDS011;51033;42.648;23.292;2022-08-01T05:07:07;3.33;;;2.20;;
30934;SDS011;51033;42.648;23.292;2022-08-01T05:09:33;1.98;;;1.70;;
30934;SDS011;51033;42.648;23.292;2022-08-01T05:12:00;1.75;;;1.52;;
30934;SDS011;51033;42.648;23.292;2022-08-01T05:14:28;2.85;;;1.60;;
30934;SDS011;51033;42.648;23.292;2022-08-01T05:16:56;1.85;;;1.58;;
30934;SDS011;51033;42.648;23.292;2022-08-01T05:19:28;3.05;;;1.67;;
30934;SDS011;51033;42.648;23.292;2022-08-01T05:21:56;3.40;;;1.60;;
30934;SDS011;51033;42.648;23.292;2022-08-01T05:24:22;2.05;;;1.60;;
30934;SDS011;51033;42.648;23.292;2022-08-01T05:26:48;2.33;;;1.70;;
30934;SDS011;51033;42.648;23.292;2022-08-01T05:29:14;4.72;;;2.03;;
30934;SDS011;51033;42.648;23.292;2022-08-01T05:31:40;1.45;;;1.30;;
30934;SDS011;51033;42.648;23.292;2022-08-01T05:34:05;4.00;;;1.70;;
30934;SDS011;51033;42.648;23.292;2022-08-01T05:36:30;1.65;;;1.55;;
30934;SDS011;51033;42.648;23.292;2022-08-01T05:38:56;2.30;;;1.50;;
30934;SDS011;51033;42.648;23.292;2022-08-01T05:41:21;1.67;;;1.58;;
30934;SDS011;51033;42.648;23.292;2022-08-01T05:43:47;3.47;;;1.77;;
30934;SDS011;51033;42.648;23.292;2022-08-01T05:46:12;2.05;;;1.70;;
30934;SDS011;51033;42.648;23.292;2022-08-01T05:48:37;2.40;;;2.00;;
30934;SDS011;51033;42.648;23.292;2022-08-01T05:51:03;1.95;;;1.60;;
30934;SDS011;51033;42.648;23.292;2022-08-01T05:53:29;2.00;;;1.60;;
30934;SDS011;51033;42.648;23.292;2022-08-01T05:55:55;3.10;;;1.90;;
30934;SDS011;51033;42.648;23.292;2022-08-01T05:58:20;1.88;;;1.52;;
30934;SDS011;51033;42.648;23.292;2022-08-01T06:00:46;2.60;;;1.63;;
30934;SDS011;51033;42.648;23.292;2022-08-01T06:03:11;2.70;;;1.98;;
30934;SDS011;51033;42.648;23.292;2022-08-01T06:05:37;1.90;;;1.70;;
30934;SDS011;51033;42.648;23.292;2022-08-01T06:08:02;2.78;;;1.90;;
30934;SDS011;51033;42.648;23.292;2022-08-01T06:10:28;6.72;;;2.30;;
30934;SDS011;51033;42.648;23.292;2022-08-01T06:12:53;2.35;;;1.98;;
30934;SDS011;51033;42.648;23.292;2022-08-01T06:15:19;1.60;;;1.50;;
30934;SDS011;51033;42.648;23.292;2022-08-01T06:17:44;2.58;;;1.85;;
30934;SDS011;51033;42.648;23.292;2022-08-01T06:20:10;2.08;;;1.45;;
30934;SDS011;51033;42.648;23.292;2022-08-01T06:22:35;4.07;;;1.90;;
30934;SDS011;51033;42.648;23.292;2022-08-01T06:25:01;2.20;;;1.75;;
30934;SDS011;51033;42.648;23.292;2022-08-01T06:27:26;1.60;;;1.30;;
30934;SDS011;51033;42.648;23.292;2022-08-01T06:29:52;2.33;;;1.90;;
30934;SDS011;51033;42.648;23.292;2022-08-01T06:32:21;2.13;;;1.70;;
30934;SDS011;51033;42.648;23.292;2022-08-01T06:34:51;1.45;;;1.35;;
30934;SDS011;51033;42.648;23.292;2022-08-01T06:37:16;2.38;;;1.98;;
30934;SDS011;51033;42.648;23.292;2022-08-01T06:39:42;3.33;;;1.92;;
30934;SDS011;51033;42.648;23.292;2022-08-01T06:42:07;2.83;;;1.60;;
30934;SDS011;51033;42.648;23.292;2022-08-01T06:44:34;2.58;;;1.95;;
30934;SDS011;51033;42.648;23.292;2022-08-01T06:47:00;2.13;;;1.83;;
30934;SDS011;51033;42.648;23.292;2022-08-01T06:49:26;2.35;;;2.10;;
30934;SDS011;51033;42.648;23.292;2022-08-01T06:51:51;2.15;;;1.92;;
30934;SDS011;51033;42.648;23.292;2022-08-01T06:54:16;2.45;;;2.10;;
30934;SDS011;51033;42.648;23.292;2022-08-01T06:56:42;1.70;;;1.60;;
30934;SDS011;51033;42.648;23.292;2022-08-01T06:59:07;3.85;;;2.17;;
30934;SDS011;51033;42.648;23.292;2022-08-01T07:01:33;2.55;;;2.00;;
30934;SDS011;51033;42.648;23.292;2022-08-01T07:03:58;2.50;;;2.00;;
30934;SDS011;51033;42.648;23.292;2022-08-01T07:06:24;3.70;;;1.95;;
30934;SDS011;51033;42.648;23.292;2022-08-01T07:08:50;1.67;;;1.52;;
30934;SDS011;51033;42.648;23.292;2022-08-01T07:11:19;3.15;;;2.58;;
30934;SDS011;51033;42.648;23.292;2022-08-01T07:13:46;3.88;;;2.15;;
30934;SDS011;51033;42.648;23.292;2022-08-01T07:16:12;2.75;;;2.10;;
30934;SDS011;51033;42.648;23.292;2022-08-01T07:18:38;2.15;;;1.88;;
30934;SDS011;51033;42.648;23.292;2022-08-01T07:21:03;3.78;;;2.55;;
30934;SDS011;51033;42.648;23.292;2022-08-01T07:23:29;2.53;;;2.00;;
30934;SDS011;51033;42.648;23.292;2022-08-01T07:25:54;2.25;;;2.00;;
30934;SDS011;51033;42.648;23.292;2022-08-01T07:28:19;2.45;;;2.15;;
30934;SDS011;51033;42.648;23.292;2022-08-01T07:30:45;3.80;;;2.10;;
30934;SDS011;51033;42.648;23.292;2022-08-01T07:33:10;2.60;;;2.38;;
30934;SDS011;51033;42.648;23.292;2022-08-01T07:35:37;2.00;;;1.67;;
30934;SDS011;51033;42.648;23.292;2022-08-01T07:38:03;5.00;;;2.20;;
30934;SDS011;51033;42.648;23.292;2022-08-01T07:40:29;3.72;;;2.17;;
30934;SDS011;51033;42.648;23.292;2022-08-01T07:42:55;2.85;;;1.65;;
30934;SDS011;51033;42.648;23.292;2022-08-01T07:45:21;9.20;;;3.28;;
30934;SDS011;51033;42.648;23.292;2022-08-01T07:47:46;3.35;;;2.45;;
30934;SDS011;51033;42.648;23.292;2022-08-01T07:50:12;2.28;;;1.90;;
30934;SDS011;51033;42.648;23.292;2022-08-01T07:52:37;4.15;;;2.42;;
30934;SDS011;51033;42.648;23.292;2022-08-01T07:55:03;2.88;;;2.10;;
30934;SDS011;51033;42.648;23.292;2022-08-01T07:57:29;3.83;;;2.05;;
30934;SDS011;51033;42.648;23.292;2022-08-01T07:59:54;1.85;;;1.63;;
30934;SDS011;51033;42.648;23.292;2022-08-01T08:02:20;3.13;;;1.83;;
30934;SDS011;51033;42.648;23.292;2022-08-01T08:04:45;1.92;;;1.75;;
30934;SDS011;51033;42.648;23.292;2022-08-01T08:07:11;2.97;;;1.70;;
30934;SDS011;51033;42.648;23.292;2022-08-01T08:09:36;2.42;;;2.15;;
30934;SDS011;51033;42.648;23.292;2022-08-01T08:12:02;2.60;;;2.40;;
30934;SDS011;51033;42.648;23.292;2022-08-01T08:14:27;3.28;;;2.15;;
30934;SDS011;51033;42.648;23.292;2022-08-01T08:16:54;3.13;;;2.00;;
30934;SDS011;51033;42.648;23.292;2022-08-01T08:19:19;3.50;;;2.42;;
30934;SDS011;51033;42.648;23.292;2022-08-01T08:21:45;10.52;;;2.25;;
30934;SDS011;51033;42.648;23.292;2022-08-01T08:24:10;4.13;;;2.17;;
30934;SDS011;51033;42.648;23.292;2022-08-01T08:26:49;2.10;;;1.90;;
30934;SDS011;51033;42.648;23.292;2022-08-01T08:29:18;3.65;;;2.53;;
30934;SDS011;51033;42.648;23.292;2022-08-01T08:31:44;2.78;;;2.20;;
30934;SDS011;51033;42.648;23.292;2022-08-01T08:34:10;2.38;;;2.00;;
30934;SDS011;51033;42.648;23.292;2022-08-01T08:36:35;2.30;;;1.90;;
30934;SDS011;51033;42.648;23.292;2022-08-01T08:39:02;2.58;;;2.33;;
30934;SDS011;51033;42.648;23.292;2022-08-01T08:41:31;2.33;;;1.75;;
30934;SDS011;51033;42.648;23.292;2022-08-01T08:43:57;2.97;;;2.42;;
30934;SDS011;51033;42.648;23.292;2022-08-01T08:46:24;4.63;;;2.40;;
30934;SDS011;51033;42.648;23.292;2022-08-01T08:48:52;5.07;;;2.08;;
30934;SDS011;51033;42.648;23.292;2022-08-01T08:51:18;2.15;;;1.95;;
30934;SDS011;51033;42.648;23.292;2022-08-01T08:53:44;4.07;;;2.05;;
30934;SDS011;51033;42.648;23.292;2022-08-01T08:56:12;2.40;;;1.70;;
30934;SDS011;51033;42.648;23.292;2022-08-01T08:58:38;4.72;;;2.05;;
30934;SDS011;51033;42.648;23.292;2022-08-01T09:01:07;4.35;;;2.28;;
30934;SDS011;51033;42.648;23.292;2022-08-01T09:03:33;3.95;;;1.90;;
30934;SDS011;51033;42.648;23.292;2022-08-01T09:05:59;2.47;;;1.83;;
30934;SDS011;51033;42.648;23.292;2022-08-01T09:08:24;2.17;;;1.80;;
30934;SDS011;51033;42.648;23.292;2022-08-01T09:10:50;3.75;;;1.63;;
30934;SDS011;51033;42.648;23.292;2022-08-01T09:13:15;2.20;;;2.00;;
30934;SDS011;51033;42.648;23.292;2022-08-01T09:15:42;2.25;;;1.92;;
30934;SDS011;51033;42.648;23.292;2022-08-01T09:21:14;3.25;;;2.53;;
30934;SDS011;51033;42.648;23.292;2022-08-01T09:23:45;2.67;;;1.88;;
30934;SDS011;51033;42.648;23.292;2022-08-01T09:26:13;3.65;;;1.73;;
30934;SDS011;51033;42.648;23.292;2022-08-01T09:28:40;1.80;;;1.60;;
30934;SDS011;51033;42.648;23.292;2022-08-01T09:31:10;3.63;;;1.92;;
30934;SDS011;51033;42.648;23.292;2022-08-01T09:33:56;1.67;;;1.58;;
30934;SDS011;51033;42.648;23.292;2022-08-01T09:36:25;7.65;;;2.10;;
30934;SDS011;51033;42.648;23.292;2022-08-01T09:39:17;3.08;;;2.78;;
30934;SDS011;51033;42.648;23.292;2022-08-01T09:41:43;3.40;;;2.30;;
30934;SDS011;51033;42.648;23.292;2022-08-01T09:44:09;2.83;;;2.30;;
30934;SDS011;51033;42.648;23.292;2022-08-01T09:46:34;3.65;;;2.20;;
30934;SDS011;51033;42.648;23.292;2022-08-01T09:49:04;3.95;;;1.98;;
30934;SDS011;51033;42.648;23.292;2022-08-01T09:51:35;3.70;;;2.72;;
30934;SDS011;51033;42.648;23.292;2022-08-01T09:54:03;2.97;;;2.45;;
30934;SDS011;51033;42.648;23.292;2022-08-01T09:56:40;4.47;;;2.28;;
30934;SDS011;51033;42.648;23.292;2022-08-01T09:59:10;2.80;;;2.30;;
30934;SDS011;51033;42.648;23.292;2022-08-01T10:01:44;2.63;;;2.25;;
30934;SDS011;51033;42.648;23.292;2022-08-01T10:06:38;2.97;;;2.05;;
30934;SDS011;51033;42.648;23.292;2022-08-01T10:09:05;2.83;;;2.58;;
30934;SDS011;51033;42.648;23.292;2022-08-01T10:11:30;3.63;;;2.08;;
30934;SDS011;51033;42.648;23.292;2022-08-01T10:13:57;2.72;;;2.28;;
30934;SDS011;51033;42.648;23.292;2022-08-01T10:16:26;3.63;;;2.50;;
30934;SDS011;51033;42.648;23.292;2022-08-01T10:18:53;4.85;;;2.72;;
30934;SDS011;51033;42.648;23.292;2022-08-01T10:21:19;3.78;;;2.78;;
30934;SDS011;51033;42.648;23.292;2022-08-01T10:23:47;2.90;;;2.70;;
30934;SDS011;51033;42.648;23.292;2022-08-01T10:26:13;2.42;;;2.22;;
30934;SDS011;51033;42.648;23.292;2022-08-01T10:28:39;2.53;;;2.30;;
30934;SDS011;51033;42.648;23.292;2022-08-01T10:31:06;4.13;;;2.20;;
30934;SDS011;51033;42.648;23.292;2022-08-01T10:33:32;2.97;;;1.88;;
30934;SDS011;51033;42.648;23.292;2022-08-01T10:36:01;3.75;;;1.95;;
30934;SDS011;51033;42.648;23.292;2022-08-01T10:38:27;3.45;;;1.77;;
30934;SDS011;51033;42.648;23.292;2022-08-01T10:40:53;2.00;;;1.80;;
30934;SDS011;51033;42.648;23.292;2022-08-01T10:43:22;3.10;;;1.58;;
30934;SDS011;51033;42.648;23.292;2022-08-01T10:45:47;5.43;;;2.40;;
30934;SDS011;51033;42.648;23.292;2022-08-01T10:50:49;2.13;;;1.73;;
30934;SDS011;51033;42.648;23.292;2022-08-01T10:53:18;2.13;;;1.90;;
30934;SDS011;51033;42.648;23.292;2022-08-01T10:58:10;2.90;;;1.50;;
30934;SDS011;51033;42.648;23.292;2022-08-01T11:00:36;1.95;;;1.50;;
30934;SDS011;51033;42.648;23.292;2022-08-01T11:03:02;1.80;;;1.70;;
30934;SDS011;51033;42.648;23.292;2022-08-01T11:05:32;3.72;;;2.00;;
30934;SDS011;51033;42.648;23.292;2022-08-01T11:08:10;1.52;;;1.42;;
30934;SDS011;51033;42.648;23.292;2022-08-01T11:10:46;2.75;;;1.80;;
30934;SDS011;51033;42.648;23.292;2022-08-01T11:13:12;3.03;;;1.80;;
30934;SDS011;51033;42.648;23.292;2022-08-01T11:15:38;2.20;;;1.70;;
30934;SDS011;51033;42.648;23.292;2022-08-01T11:21:01;2.13;;;1.88;;
30934;SDS011;51033;42.648;23.292;2022-08-01T11:23:28;1.90;;;1.70;;
30934;SDS011;51033;42.648;23.292;2022-08-01T11:28:20;2.72;;;2.03;;
30934;SDS011;51033;42.648;23.292;2022-08-01T11:30:54;3.38;;;1.73;;
30934;SDS011;51033;42.648;23.292;2022-08-01T11:38:35;6.63;;;2.20;;
30934;SDS011;51033;42.648;23.292;2022-08-01T11:44:01;2.35;;;2.13;;
30934;SDS011;51033;42.648;23.292;2022-08-01T11:54:53;2.47;;;2.20;;
30934;SDS011;51033;42.648;23.292;2022-08-01T11:57:27;7.32;;;2.63;;
30934;SDS011;51033;42.648;23.292;2022-08-01T11:59:56;2.55;;;2.35;;
30934;SDS011;51033;42.648;23.292;2022-08-01T12:02:32;2.17;;;1.98;;
30934;SDS011;51033;42.648;23.292;2022-08-01T12:05:04;2.22;;;2.03;;
30934;SDS011;51033;42.648;23.292;2022-08-01T12:07:30;2.97;;;2.60;;
30934;SDS011;51033;42.648;23.292;2022-08-01T12:12:30;3.63;;;2.28;;
30934;SDS011;51033;42.648;23.292;2022-08-01T12:15:04;2.53;;;1.90;;
30934;SDS011;51033;42.648;23.292;2022-08-01T12:17:39;3.13;;;2.17;;
30934;SDS011;51033;42.648;23.292;2022-08-01T12:20:13;2.55;;;2.35;;
30934;SDS011;51033;42.648;23.292;2022-08-01T12:22:39;2.22;;;2.03;;
30934;SDS011;51033;42.648;23.292;2022-08-01T12:25:11;1.95;;;1.85;;
30934;SDS011;51033;42.648;23.292;2022-08-01T12:27:42;4.93;;;2.40;;
30934;SDS011;51033;42.648;23.292;2022-08-01T12:30:10;2.40;;;2.00;;
30934;SDS011;51033;42.648;23.292;2022-08-01T12:32:41;2.70;;;2.50;;
30934;SDS011;51033;42.648;23.292;2022-08-01T12:35:18;2.67;;;2.42;;
30934;SDS011;51033;42.648;23.292;2022-08-01T12:37:48;9.13;;;3.05;;
30934;SDS011;51033;42.648;23.292;2022-08-01T12:40:19;3.53;;;2.40;;
30934;SDS011;51033;42.648;23.292;2022-08-01T12:42:50;2.70;;;2.50;;
30934;SDS011;51033;42.648;23.292;2022-08-01T12:45:19;2.78;;;2.58;;
30934;SDS011;51033;42.648;23.292;2022-08-01T12:47:48;3.35;;;2.63;;
30934;SDS011;51033;42.648;23.292;2022-08-01T12:50:22;3.17;;;2.47;;
30934;SDS011;51033;42.648;23.292;2022-08-01T12:52:48;3.15;;;2.90;;
30934;SDS011;51033;42.648;23.292;2022-08-01T12:55:16;2.65;;;2.45;;
30934;SDS011;51033;42.648;23.292;2022-08-01T12:57:44;2.65;;;2.45;;
30934;SDS011;51033;42.648;23.292;2022-08-01T13:00:19;3.35;;;2.53;;
30934;SDS011;51033;42.648;23.292;2022-08-01T13:02:47;2.75;;;2.55;;
30934;SDS011;51033;42.648;23.292;2022-08-01T13:05:14;2.63;;;2.40;;
30934;SDS011;51033;42.648;23.292;2022-08-01T13:07:48;2.50;;;2.30;;
30934;SDS011;51033;42.648;23.292;2022-08-01T13:10:15;2.45;;;2.25;;
30934;SDS011;51033;42.648;23.292;2022-08-01T13:12:51;2.60;;;2.05;;
30934;SDS011;51033;42.648;23.292;2022-08-01T13:17:51;2.17;;;1.90;;
30934;SDS011;51033;42.648;23.292;2022-08-01T13:20:22;5.65;;;1.95;;
30934;SDS011;51033;42.648;23.292;2022-08-01T13:23:14;2.45;;;2.10;;
30934;SDS011;51033;42.648;23.292;2022-08-01T13:25:52;1.85;;;1.75;;
30934;SDS011;51033;42.648;23.292;2022-08-01T13:28:24;5.72;;;3.25;;
30934;SDS011;51033;42.648;23.292;2022-08-01T13:33:27;2.50;;;2.30;;
30934;SDS011;51033;42.648;23.292;2022-08-01T13:36:05;2.60;;;2.08;;
30934;SDS011;51033;42.648;23.292;2022-08-01T13:38:31;2.90;;;2.08;;
30934;SDS011;51033;42.648;23.292;2022-08-01T13:41:15;2.30;;;2.17;;
30934;SDS011;51033;42.648;23.292;2022-08-01T13:43:41;2.15;;;1.90;;
30934;SDS011;51033;42.648;23.292;2022-08-01T13:46:06;5.10;;;1.92;;
30934;SDS011;51033;42.648;23.292;2022-08-01T13:48:32;2.28;;;2.00;;
30934;SDS011;51033;42.648;23.292;2022-08-01T13:50:59;2.47;;;2.28;;
30934;SDS011;51033;42.648;23.292;2022-08-01T13:53:25;1.75;;;1.65;;
30934;SDS011;51033;42.648;23.292;2022-08-01T13:55:51;4.72;;;2.03;;
30934;SDS011;51033;42.648;23.292;2022-08-01T13:58:16;2.58;;;2.38;;
30934;SDS011;51033;42.648;23.292;2022-08-01T14:00:42;2.08;;;1.92;;
30934;SDS011;51033;42.648;23.292;2022-08-01T14:03:07;3.45;;;2.17;;
30934;SDS011;51033;42.648;23.292;2022-08-01T14:05:34;4.22;;;2.03;;
30934;SDS011;51033;42.648;23.292;2022-08-01T14:08:00;2.00;;;1.90;;
30934;SDS011;51033;42.648;23.292;2022-08-01T14:10:26;4.15;;;2.08;;
30934;SDS011;51033;42.648;23.292;2022-08-01T14:12:51;2.28;;;2.10;;
30934;SDS011;51033;42.648;23.292;2022-08-01T14:15:17;2.38;;;1.92;;
30934;SDS011;51033;42.648;23.292;2022-08-01T14:17:43;2.75;;;2.03;;
30934;SDS011;51033;42.648;23.292;2022-08-01T14:20:08;1.92;;;1.65;;
30934;SDS011;51033;42.648;23.292;2022-08-01T14:22:34;3.78;;;2.50;;
30934;SDS011;51033;42.648;23.292;2022-08-01T14:25:00;2.50;;;2.30;;
30934;SDS011;51033;42.648;23.292;2022-08-01T14:27:26;2.38;;;2.17;;
30934;SDS011;51033;42.648;23.292;2022-08-01T14:29:51;2.25;;;2.05;;
30934;SDS011;51033;42.648;23.292;2022-08-01T14:32:17;5.72;;;2.30;;
30934;SDS011;51033;42.648;23.292;2022-08-01T14:34:42;2.88;;;1.90;;
30934;SDS011;51033;42.648;23.292;2022-08-01T14:37:07;4.63;;;2.25;;
30934;SDS011;51033;42.648;23.292;2022-08-01T14:39:33;2.33;;;2.17;;
30934;SDS011;51033;42.648;23.292;2022-08-01T14:42:01;2.35;;;1.77;;
30934;SDS011;51033;42.648;23.292;2022-08-01T14:44:26;1.70;;;1.60;;
30934;SDS011;51033;42.648;23.292;2022-08-01T14:46:52;2.33;;;2.13;;
30934;SDS011;51033;42.648;23.292;2022-08-01T14:49:17;6.40;;;1.92;;
30934;SDS011;51033;42.648;23.292;2022-08-01T14:51:43;1.95;;;1.85;;
30934;SDS011;51033;42.648;23.292;2022-08-01T14:54:08;1.80;;;1.70;;
30934;SDS011;51033;42.648;23.292;2022-08-01T14:56:34;2.22;;;1.95;;
30934;SDS011;51033;42.648;23.292;2022-08-01T14:58:59;4.53;;;1.70;;
30934;SDS011;51033;42.648;23.292;2022-08-01T15:01:25;3.72;;;1.80;;
30934;SDS011;51033;42.648;23.292;2022-08-01T15:03:50;2.17;;;1.98;;
30934;SDS011;51033;42.648;23.292;2022-08-01T15:06:16;1.75;;;1.65;;
30934;SDS011;51033;42.648;23.292;2022-08-01T15:08:42;2.88;;;2.20;;
30934;SDS011;51033;42.648;23.292;2022-08-01T15:11:08;1.50;;;1.40;;
30934;SDS011;51033;42.648;23.292;2022-08-01T15:13:33;1.80;;;1.70;;
30934;SDS011;51033;42.648;23.292;2022-08-01T15:16:02;2.00;;;1.65;;
30934;SDS011;51033;42.648;23.292;2022-08-01T15:18:27;1.63;;;1.45;;
30934;SDS011;51033;42.648;23.292;2022-08-01T15:20:53;2.60;;;1.42;;
30934;SDS011;51033;42.648;23.292;2022-08-01T15:23:19;1.60;;;1.50;;
30934;SDS011;51033;42.648;23.292;2022-08-01T15:25:45;1.67;;;1.58;;